sensor_id;sensor_type;location;lat;lon;timestamp;pressure;altitude;pressure_sealevel;temperature;humidity
80335;BME280;69653;52.674;13.574;2023-05-14T00:02:00;101234.84;;;12.14;61.54
80335;BME280;69653;52.674;13.574;2023-05-14T00:04:25;101230.28;;;12.09;61.68
80335;BME280;69653;52.674;13.574;2023-05-14T00:06:50;101238.13;;;12.16;61.55
80335;BME280;69653;52.674;13.574;2023-05-14T00:09:16;101234.84;;;12.14;61.92
80335;BME280;69653;52.674;13.574;2023-05-14T00:11:41;101238.94;;;12.17;61.55
80335;BME280;69653;52.674;13.574;2023-05-14T00:14:06;101243.31;;;12.18;61.69
80335;BME280;69653;52.674;13.574;2023-05-14T00:16:32;101234.25;;;12.17;61.53
80335;BME280;69653;52.674;13.574;2023-05-14T00:18:57;101237.31;;;12.15;61.67
80335;BME280;69653;52.674;13.574;2023-05-14T00:21:22;101228.03;;;12.11;61.83
80335;BME280;69653;52.674;13.574;2023-05-14T00:23:48;101232.19;;;12.09;61.27
80335;BME280;69653;52.674;13.574;2023-05-14T00:26:13;101236.56;;;12.10;61.79
80335;BME280;69653;52.674;13.574;2023-05-14T00:28:38;101233.81;;;12.10;61.95
80335;BME280;69653;52.674;13.574;2023-05-14T00:31:04;101224.25;;;12.07;61.44
80335;BME280;69653;52.674;13.574;2023-05-14T00:33:29;101225.91;;;12.08;62.01
80335;BME280;69653;52.674;13.574;2023-05-14T00:35:54;101228.69;;;12.03;61.96
80335;BME280;69653;52.674;13.574;2023-05-14T00:38:20;101225.72;;;12.00;62.19
80335;BME280;69653;52.674;13.574;2023-05-14T00:40:45;101221.88;;;12.01;61.94
80335;BME280;69653;52.674;13.574;2023-05-14T00:43:17;101222.69;;;12.01;61.97
80335;BME280;69653;52.674;13.574;2023-05-14T00:45:42;101224.41;;;11.97;61.79
80335;BME280;69653;52.674;13.574;2023-05-14T00:48:08;101205.81;;;11.94;61.78
80335;BME280;69653;52.674;13.574;2023-05-14T00:50:34;101227.97;;;11.98;62.44
80335;BME280;69653;52.674;13.574;2023-05-14T00:52:59;101222.53;;;11.93;62.28
80335;BME280;69653;52.674;13.574;2023-05-14T00:55:25;101217.88;;;11.93;62.05
80335;BME280;69653;52.674;13.574;2023-05-14T00:57:53;101225.28;;;11.93;62.30
80335;BME280;69653;52.674;13.574;2023-05-14T01:00:19;101218.50;;;11.85;62.05
80335;BME280;69653;52.674;13.574;2023-05-14T01:02:45;101218.78;;;11.84;62.71
80335;BME280;69653;52.674;13.574;2023-05-14T01:05:10;101213.16;;;11.75;62.64
80335;BME280;69653;52.674;13.574;2023-05-14T01:08:03;101218.94;;;11.74;62.48
80335;BME280;69653;52.674;13.574;2023-05-14T01:10:41;101223.31;;;11.69;62.34
80335;BME280;69653;52.674;13.574;2023-05-14T01:16:12;101220.44;;;11.61;62.59
80335;BME280;69653;52.674;13.574;2023-05-14T01:18:42;101215.28;;;11.54;62.21
80335;BME280;69653;52.674;13.574;2023-05-14T01:21:41;101220.19;;;11.57;62.31
80335;BME280;69653;52.674;13.574;2023-05-14T01:24:06;101222.69;;;11.54;61.94
80335;BME280;69653;52.674;13.574;2023-05-14T01:26:32;101227.63;;;11.52;62.35
80335;BME280;69653;52.674;13.574;2023-05-14T01:29:12;101225.50;;;11.49;61.95
80335;BME280;69653;52.674;13.574;2023-05-14T01:31:42;101221.75;;;11.40;62.31
80335;BME280;69653;52.674;13.574;2023-05-14T01:34:10;101226.94;;;11.41;62.20
80335;BME280;69653;52.674;13.574;2023-05-14T01:36:36;101220.41;;;11.37;61.65
80335;BME280;69653;52.674;13.574;2023-05-14T01:39:02;101218.25;;;11.34;62.00
80335;BME280;69653;52.674;13.574;2023-05-14T01:41:28;101209.56;;;11.27;62.36
80335;BME280;69653;52.674;13.574;2023-05-14T01:43:55;101210.38;;;11.28;62.35
80335;BME280;69653;52.674;13.574;2023-05-14T01:46:21;101208.28;;;11.19;62.56
80335;BME280;69653;52.674;13.574;2023-05-14T01:48:48;101199.59;;;11.12;63.11
80335;BME280;69653;52.674;13.574;2023-05-14T01:51:13;101210.28;;;11.09;63.50
80335;BME280;69653;52.674;13.574;2023-05-14T01:53:39;101200.16;;;11.09;62.92
80335;BME280;69653;52.674;13.574;2023-05-14T01:56:04;101195.25;;;11.06;63.07
80335;BME280;69653;52.674;13.574;2023-05-14T01:58:29;101201.78;;;11.10;62.65
80335;BME280;69653;52.674;13.574;2023-05-14T02:00:55;101200.22;;;11.04;63.06
80335;BME280;69653;52.674;13.574;2023-05-14T02:03:20;101195.56;;;11.05;63.58
80335;BME280;69653;52.674;13.574;2023-05-14T02:05:45;101189.59;;;10.98;63.62
80335;BME280;69653;52.674;13.574;2023-05-14T02:08:11;101197.81;;;10.98;63.59
80335;BME280;69653;52.674;13.574;2023-05-14T02:10:36;101190.97;;;10.95;63.60
80335;BME280;69653;52.674;13.574;2023-05-14T02:13:02;101196.19;;;10.97;63.09
80335;BME280;69653;52.674;13.574;2023-05-14T02:15:27;101196.22;;;10.92;63.66
80335;BME280;69653;52.674;13.574;2023-05-14T02:17:53;101180.94;;;10.86;64.01
80335;BME280;69653;52.674;13.574;2023-05-14T02:20:18;101196.22;;;10.92;63.67
80335;BME280;69653;52.674;13.574;2023-05-14T02:22:43;101184.44;;;10.91;63.84
80335;BME280;69653;52.674;13.574;2023-05-14T02:25:10;101188.78;;;10.97;63.41
80335;BME280;69653;52.674;13.574;2023-05-14T02:27:35;101178.38;;;10.94;63.26
80335;BME280;69653;52.674;13.574;2023-05-14T02:30:01;101180.00;;;11.00;62.60
80335;BME280;69653;52.674;13.574;2023-05-14T02:32:27;101182.44;;;11.02;62.88
80335;BME280;69653;52.674;13.574;2023-05-14T02:34:52;101187.59;;;11.08;62.72
80335;BME280;69653;52.674;13.574;2023-05-14T02:37:17;101190.09;;;11.05;62.70
80335;BME280;69653;52.674;13.574;2023-05-14T02:39:43;101181.53;;;11.11;62.59
80335;BME280;69653;52.674;13.574;2023-05-14T02:42:08;101188.06;;;11.15;62.23
80335;BME280;69653;52.674;13.574;2023-05-14T02:44:33;101195.69;;;11.18;63.02
80335;BME280;69653;52.674;13.574;2023-05-14T02:46:59;101190.72;;;11.20;63.02
80335;BME280;69653;52.674;13.574;2023-05-14T02:49:24;101185.56;;;11.19;63.04
80335;BME280;69653;52.674;13.574;2023-05-14T02:51:49;101185.25;;;11.20;62.86
80335;BME280;69653;52.674;13.574;2023-05-14T02:54:15;101190.97;;;11.24;62.32
80335;BME280;69653;52.674;13.574;2023-05-14T02:56:40;101175.91;;;11.27;62.70
80335;BME280;69653;52.674;13.574;2023-05-14T02:59:06;101184.84;;;11.32;62.46
80335;BME280;69653;52.674;13.574;2023-05-14T03:01:31;101181.84;;;11.34;62.40
80335;BME280;69653;52.674;13.574;2023-05-14T03:03:56;101180.97;;;11.38;62.29
80335;BME280;69653;52.674;13.574;2023-05-14T03:06:22;101183.13;;;11.41;61.79
80335;BME280;69653;52.674;13.574;2023-05-14T03:08:47;101177.66;;;11.41;61.50
80335;BME280;69653;52.674;13.574;2023-05-14T03:11:12;101177.66;;;11.41;60.97
80335;BME280;69653;52.674;13.574;2023-05-14T03:13:38;101193.72;;;11.48;60.64
80335;BME280;69653;52.674;13.574;2023-05-14T03:16:03;101196.41;;;11.53;60.30
80335;BME280;69653;52.674;13.574;2023-05-14T03:18:28;101186.78;;;11.55;60.13
80335;BME280;69653;52.674;13.574;2023-05-14T03:20:54;101200.44;;;11.60;59.66
80335;BME280;69653;52.674;13.574;2023-05-14T03:23:20;101201.75;;;11.63;60.36
80335;BME280;69653;52.674;13.574;2023-05-14T03:25:45;101188.59;;;11.65;59.73
80335;BME280;69653;52.674;13.574;2023-05-14T03:28:11;101181.78;;;11.62;59.54
80335;BME280;69653;52.674;13.574;2023-05-14T03:30:36;101192.09;;;11.71;59.20
80335;BME280;69653;52.674;13.574;2023-05-14T03:33:01;101191.03;;;11.72;58.86
80335;BME280;69653;52.674;13.574;2023-05-14T03:35:26;101191.03;;;11.72;59.18
80335;BME280;69653;52.674;13.574;2023-05-14T03:37:52;101175.94;;;11.69;59.22
80335;BME280;69653;52.674;13.574;2023-05-14T03:40:17;101190.66;;;11.78;58.68
80335;BME280;69653;52.674;13.574;2023-05-14T03:42:43;101188.44;;;11.80;58.57
80335;BME280;69653;52.674;13.574;2023-05-14T03:45:08;101183.75;;;11.81;58.28
80335;BME280;69653;52.674;13.574;2023-05-14T03:47:34;101185.41;;;11.82;58.31
80335;BME280;69653;52.674;13.574;2023-05-14T03:49:59;101180.44;;;11.84;58.11
80335;BME280;69653;52.674;13.574;2023-05-14T03:52:24;101185.03;;;11.88;57.99
80335;BME280;69653;52.674;13.574;2023-05-14T03:54:50;101185.13;;;11.83;58.30
80335;BME280;69653;52.674;13.574;2023-05-14T03:57:15;101191.13;;;11.85;57.99
80335;BME280;69653;52.674;13.574;2023-05-14T03:59:40;101177.94;;;11.87;57.45
80335;BME280;69653;52.674;13.574;2023-05-14T04:02:06;101191.06;;;11.90;57.70
80335;BME280;69653;52.674;13.574;2023-05-14T04:04:31;101176.44;;;11.95;57.77
80335;BME280;69653;52.674;13.574;2023-05-14T04:06:56;101161.72;;;11.91;57.61
80335;BME280;69653;52.674;13.574;2023-05-14T04:09:22;101172.81;;;11.99;57.53
80335;BME280;69653;52.674;13.574;2023-05-14T04:11:47;101177.22;;;12.00;57.33
80335;BME280;69653;52.674;13.574;2023-05-14T04:14:13;101175.72;;;12.08;56.92
80335;BME280;69653;52.674;13.574;2023-05-14T04:16:38;101168.34;;;12.08;56.51
80335;BME280;69653;52.674;13.574;2023-05-14T04:19:03;101165.28;;;12.10;56.49
80335;BME280;69653;52.674;13.574;2023-05-14T04:21:30;101166.63;;;12.12;56.97
80335;BME280;69653;52.674;13.574;2023-05-14T04:23:55;101163.28;;;12.15;56.82
80335;BME280;69653;52.674;13.574;2023-05-14T04:26:20;101153.44;;;12.14;56.99
80335;BME280;69653;52.674;13.574;2023-05-14T04:28:46;101172.56;;;12.20;57.05
80335;BME280;69653;52.674;13.574;2023-05-14T04:31:11;101158.53;;;12.21;56.39
80335;BME280;69653;52.674;13.574;2023-05-14T04:33:37;101167.50;;;12.27;56.55
80335;BME280;69653;52.674;13.574;2023-05-14T04:36:02;101159.13;;;12.18;56.97
80335;BME280;69653;52.674;13.574;2023-05-14T04:38:29;101154.69;;;12.22;57.83
80335;BME280;69653;52.674;13.574;2023-05-14T04:40:55;101161.22;;;12.26;57.63
80335;BME280;69653;52.674;13.574;2023-05-14T04:43:21;101165.28;;;12.29;57.56
80335;BME280;69653;52.674;13.574;2023-05-14T04:45:46;101166.03;;;12.34;58.12
80335;BME280;69653;52.674;13.574;2023-05-14T04:48:11;101157.72;;;12.39;57.95
80335;BME280;69653;52.674;13.574;2023-05-14T04:50:37;101164.81;;;12.59;57.94
80335;BME280;69653;52.674;13.574;2023-05-14T04:53:02;101168.75;;;12.85;56.78
80335;BME280;69653;52.674;13.574;2023-05-14T04:55:27;101162.09;;;13.05;55.33
80335;BME280;69653;52.674;13.574;2023-05-14T04:57:53;101165.00;;;13.14;54.73
80335;BME280;69653;52.674;13.574;2023-05-14T05:00:18;101164.78;;;13.24;54.01
80335;BME280;69653;52.674;13.574;2023-05-14T05:02:46;101163.16;;;13.64;52.93
80335;BME280;69653;52.674;13.574;2023-05-14T05:05:11;101152.94;;;14.05;51.58
80335;BME280;69653;52.674;13.574;2023-05-14T05:07:36;101160.78;;;14.47;50.83
80335;BME280;69653;52.674;13.574;2023-05-14T05:10:02;101153.66;;;14.69;50.14
80335;BME280;69653;52.674;13.574;2023-05-14T05:12:27;101147.00;;;14.92;48.92
80335;BME280;69653;52.674;13.574;2023-05-14T05:14:56;101147.38;;;15.07;48.02
80335;BME280;69653;52.674;13.574;2023-05-14T05:17:22;101153.16;;;15.28;47.86
80335;BME280;69653;52.674;13.574;2023-05-14T05:19:47;101145.72;;;15.37;47.68
80335;BME280;69653;52.674;13.574;2023-05-14T05:22:14;101143.28;;;15.75;46.55
80335;BME280;69653;52.674;13.574;2023-05-14T05:24:39;101136.06;;;15.96;45.40
80335;BME280;69653;52.674;13.574;2023-05-14T05:27:04;101131.34;;;16.23;45.13
80335;BME280;69653;52.674;13.574;2023-05-14T05:29:30;101138.50;;;16.67;43.32
80335;BME280;69653;52.674;13.574;2023-05-14T05:31:55;101141.56;;;16.74;43.33
80335;BME280;69653;52.674;13.574;2023-05-14T05:34:20;101151.97;;;16.68;43.50
80335;BME280;69653;52.674;13.574;2023-05-14T05:36:46;101148.22;;;16.47;44.67
80335;BME280;69653;52.674;13.574;2023-05-14T05:39:11;101126.78;;;16.27;44.44
80335;BME280;69653;52.674;13.574;2023-05-14T05:41:37;101128.75;;;16.09;45.72
80335;BME280;69653;52.674;13.574;2023-05-14T05:44:02;101126.44;;;15.94;46.15
80335;BME280;69653;52.674;13.574;2023-05-14T05:46:27;101126.44;;;15.77;47.12
80335;BME280;69653;52.674;13.574;2023-05-14T05:48:53;101141.19;;;15.72;48.54
80335;BME280;69653;52.674;13.574;2023-05-14T05:51:18;101132.72;;;15.51;48.55
80335;BME280;69653;52.674;13.574;2023-05-14T05:53:43;101120.16;;;15.45;48.52
80335;BME280;69653;52.674;13.574;2023-05-14T05:56:08;101136.94;;;15.58;48.66
80335;BME280;69653;52.674;13.574;2023-05-14T05:58:34;101141.50;;;15.62;48.69
80335;BME280;69653;52.674;13.574;2023-05-14T06:00:59;101139.72;;;15.66;49.35
80335;BME280;69653;52.674;13.574;2023-05-14T06:03:25;101145.75;;;15.77;48.03
80335;BME280;69653;52.674;13.574;2023-05-14T06:05:51;101141.84;;;15.86;48.95
80335;BME280;69653;52.674;13.574;2023-05-14T06:08:19;101142.50;;;16.00;48.58
80335;BME280;69653;52.674;13.574;2023-05-14T06:10:44;101142.22;;;16.19;47.83
80335;BME280;69653;52.674;13.574;2023-05-14T06:13:10;101147.59;;;16.33;47.03
80335;BME280;69653;52.674;13.574;2023-05-14T06:15:36;101154.72;;;16.42;45.87
80335;BME280;69653;52.674;13.574;2023-05-14T06:18:01;101147.91;;;16.40;46.50
80335;BME280;69653;52.674;13.574;2023-05-14T06:20:26;101140.59;;;16.44;46.57
80335;BME280;69653;52.674;13.574;2023-05-14T06:22:51;101145.00;;;16.45;45.61
80335;BME280;69653;52.674;13.574;2023-05-14T06:25:17;101155.53;;;16.52;45.44
80335;BME280;69653;52.674;13.574;2023-05-14T06:27:43;101150.03;;;16.52;45.42
80335;BME280;69653;52.674;13.574;2023-05-14T06:30:08;101138.97;;;16.43;45.36
80335;BME280;69653;52.674;13.574;2023-05-14T06:32:35;101141.56;;;16.39;45.73
80335;BME280;69653;52.674;13.574;2023-05-14T06:35:00;101142.22;;;16.45;44.58
80335;BME280;69653;52.674;13.574;2023-05-14T06:37:26;101138.16;;;16.42;44.07
80335;BME280;69653;52.674;13.574;2023-05-14T06:39:51;101129.06;;;16.42;45.24
80335;BME280;69653;52.674;13.574;2023-05-14T06:42:17;101121.28;;;16.44;45.21
80335;BME280;69653;52.674;13.574;2023-05-14T06:44:43;101138.19;;;16.60;44.01
80335;BME280;69653;52.674;13.574;2023-05-14T06:47:08;101127.47;;;16.67;43.96
80335;BME280;69653;52.674;13.574;2023-05-14T06:49:34;101125.31;;;16.72;43.63
80335;BME280;69653;52.674;13.574;2023-05-14T06:52:00;101145.75;;;16.97;44.05
80335;BME280;69653;52.674;13.574;2023-05-14T06:54:25;101140.38;;;17.01;44.44
80335;BME280;69653;52.674;13.574;2023-05-14T06:56:51;101144.41;;;17.12;44.74
80335;BME280;69653;52.674;13.574;2023-05-14T06:59:16;101149.41;;;17.18;43.78
80335;BME280;69653;52.674;13.574;2023-05-14T07:01:41;101136.06;;;17.20;44.35
80335;BME280;69653;52.674;13.574;2023-05-14T07:04:06;101132.47;;;17.28;44.23
80335;BME280;69653;52.674;13.574;2023-05-14T07:06:32;101149.19;;;17.32;43.60
80335;BME280;69653;52.674;13.574;2023-05-14T07:08:58;101138.00;;;17.28;43.53
80335;BME280;69653;52.674;13.574;2023-05-14T07:11:23;101136.19;;;17.32;43.94
80335;BME280;69653;52.674;13.574;2023-05-14T07:13:48;101136.81;;;17.38;43.15
80335;BME280;69653;52.674;13.574;2023-05-14T07:16:14;101130.00;;;17.35;43.27
80335;BME280;69653;52.674;13.574;2023-05-14T07:18:39;101134.84;;;17.38;42.82
80335;BME280;69653;52.674;13.574;2023-05-14T07:21:05;101129.31;;;17.38;42.52
80335;BME280;69653;52.674;13.574;2023-05-14T07:23:34;101123.16;;;17.41;42.74
80335;BME280;69653;52.674;13.574;2023-05-14T07:26:01;101129.31;;;17.38;42.43
80335;BME280;69653;52.674;13.574;2023-05-14T07:28:26;101122.75;;;17.52;43.25
80335;BME280;69653;52.674;13.574;2023-05-14T07:30:52;101125.16;;;17.62;41.89
80335;BME280;69653;52.674;13.574;2023-05-14T07:33:18;101122.22;;;17.67;41.07
80335;BME280;69653;52.674;13.574;2023-05-14T07:35:43;101122.78;;;17.81;41.08
80335;BME280;69653;52.674;13.574;2023-05-14T07:38:08;101121.38;;;17.75;40.81
80335;BME280;69653;52.674;13.574;2023-05-14T07:40:33;101112.13;;;17.71;41.28
80335;BME280;69653;52.674;13.574;2023-05-14T07:42:59;101121.41;;;17.66;42.21
80335;BME280;69653;52.674;13.574;2023-05-14T07:45:24;101118.31;;;17.68;42.35
80335;BME280;69653;52.674;13.574;2023-05-14T07:47:49;101119.41;;;17.75;42.19
80335;BME280;69653;52.674;13.574;2023-05-14T07:50:16;101118.53;;;17.83;42.34
80335;BME280;69653;52.674;13.574;2023-05-14T07:52:42;101112.97;;;17.83;40.63
80335;BME280;69653;52.674;13.574;2023-05-14T07:55:08;101114.81;;;17.79;41.28
80335;BME280;69653;52.674;13.574;2023-05-14T07:57:33;101102.31;;;17.73;40.80
80335;BME280;69653;52.674;13.574;2023-05-14T07:59:59;101112.78;;;17.68;41.55
80335;BME280;69653;52.674;13.574;2023-05-14T08:02:24;101100.91;;;17.67;42.04
80335;BME280;69653;52.674;13.574;2023-05-14T08:04:49;101096.13;;;17.76;41.68
80335;BME280;69653;52.674;13.574;2023-05-14T08:07:15;101108.28;;;17.84;41.30
80335;BME280;69653;52.674;13.574;2023-05-14T08:09:40;101104.81;;;17.87;41.06
80335;BME280;69653;52.674;13.574;2023-05-14T08:12:06;101106.72;;;17.95;40.83
80335;BME280;69653;52.674;13.574;2023-05-14T08:14:31;101094.50;;;17.96;39.79
80335;BME280;69653;52.674;13.574;2023-05-14T08:16:57;101104.97;;;18.11;40.51
80335;BME280;69653;52.674;13.574;2023-05-14T08:19:22;101097.75;;;18.19;40.81
80335;BME280;69653;52.674;13.574;2023-05-14T08:21:48;101109.03;;;18.34;40.41
80335;BME280;69653;52.674;13.574;2023-05-14T08:24:14;101098.59;;;18.31;38.90
80335;BME280;69653;52.674;13.574;2023-05-14T08:26:39;101097.84;;;18.43;38.54
80335;BME280;69653;52.674;13.574;2023-05-14T08:29:04;101096.03;;;18.47;37.90
80335;BME280;69653;52.674;13.574;2023-05-14T08:31:30;101100.50;;;18.60;39.24
80335;BME280;69653;52.674;13.574;2023-05-14T08:33:55;101089.09;;;18.74;38.86
80335;BME280;69653;52.674;13.574;2023-05-14T08:36:20;101089.59;;;18.88;37.72
80335;BME280;69653;52.674;13.574;2023-05-14T08:38:45;101089.63;;;19.00;36.44
80335;BME280;69653;52.674;13.574;2023-05-14T08:41:11;101090.09;;;19.26;36.73
80335;BME280;69653;52.674;13.574;2023-05-14T08:46:22;101080.16;;;19.74;36.28
80335;BME280;69653;52.674;13.574;2023-05-14T08:48:53;101080.53;;;19.72;34.95
80335;BME280;69653;52.674;13.574;2023-05-14T08:51:20;101075.31;;;19.71;34.99
80335;BME280;69653;52.674;13.574;2023-05-14T08:53:46;101078.28;;;19.78;34.25
80335;BME280;69653;52.674;13.574;2023-05-14T08:56:12;101077.44;;;20.02;34.04
80335;BME280;69653;52.674;13.574;2023-05-14T08:58:39;101078.50;;;20.25;33.73
80335;BME280;69653;52.674;13.574;2023-05-14T09:01:04;101084.50;;;20.39;33.95
80335;BME280;69653;52.674;13.574;2023-05-14T09:03:30;101073.88;;;20.57;33.43
80335;BME280;69653;52.674;13.574;2023-05-14T09:05:56;101074.78;;;20.61;32.72
80335;BME280;69653;52.674;13.574;2023-05-14T09:08:22;101070.94;;;20.81;32.74
80335;BME280;69653;52.674;13.574;2023-05-14T09:10:47;101073.09;;;21.03;32.66
80335;BME280;69653;52.674;13.574;2023-05-14T09:13:13;101075.28;;;21.41;32.32
80335;BME280;69653;52.674;13.574;2023-05-14T09:15:38;101066.94;;;21.76;30.91
80335;BME280;69653;52.674;13.574;2023-05-14T09:18:05;101059.22;;;22.04;30.86
80335;BME280;69653;52.674;13.574;2023-05-14T09:20:31;101059.84;;;22.33;30.21
80335;BME280;69653;52.674;13.574;2023-05-14T09:22:57;101054.34;;;22.78;30.51
80335;BME280;69653;52.674;13.574;2023-05-14T09:25:29;101051.53;;;23.01;29.13
80335;BME280;69653;52.674;13.574;2023-05-14T09:27:56;101040.00;;;23.25;28.77
80335;BME280;69653;52.674;13.574;2023-05-14T09:30:23;101037.78;;;23.38;27.78
80335;BME280;69653;52.674;13.574;2023-05-14T09:32:48;101035.22;;;24.08;27.60
80335;BME280;69653;52.674;13.574;2023-05-14T09:35:26;101030.09;;;24.47;24.49
80335;BME280;69653;52.674;13.574;2023-05-14T09:37:53;101032.28;;;25.04;24.93
80335;BME280;69653;52.674;13.574;2023-05-14T09:40:19;101030.00;;;25.21;24.61
80335;BME280;69653;52.674;13.574;2023-05-14T09:42:45;101016.97;;;25.46;23.71
80335;BME280;69653;52.674;13.574;2023-05-14T09:45:12;101022.03;;;25.91;23.66
80335;BME280;69653;52.674;13.574;2023-05-14T09:47:38;101004.09;;;26.10;24.29
80335;BME280;69653;52.674;13.574;2023-05-14T09:50:04;101010.09;;;26.01;23.57
80335;BME280;69653;52.674;13.574;2023-05-14T09:52:31;101003.72;;;26.15;22.81
80335;BME280;69653;52.674;13.574;2023-05-14T09:54:56;100998.19;;;26.22;23.55
80335;BME280;69653;52.674;13.574;2023-05-14T09:57:21;100993.69;;;26.03;22.15
80335;BME280;69653;52.674;13.574;2023-05-14T09:59:47;100989.53;;;25.73;21.86
80335;BME280;69653;52.674;13.574;2023-05-14T10:02:22;100989.72;;;25.36;23.41
80335;BME280;69653;52.674;13.574;2023-05-14T10:04:52;100974.16;;;25.42;23.77
80335;BME280;69653;52.674;13.574;2023-05-14T10:07:22;100982.09;;;25.33;22.75
80335;BME280;69653;52.674;13.574;2023-05-14T10:09:48;100981.13;;;25.07;22.99
80335;BME280;69653;52.674;13.574;2023-05-14T10:12:20;100983.63;;;24.76;24.35
80335;BME280;69653;52.674;13.574;2023-05-14T10:14:47;100978.97;;;24.46;23.65
80335;BME280;69653;52.674;13.574;2023-05-14T10:17:16;100961.66;;;23.97;24.26
80335;BME280;69653;52.674;13.574;2023-05-14T10:19:49;100965.59;;;23.92;25.18
80335;BME280;69653;52.674;13.574;2023-05-14T10:22:18;100969.28;;;24.00;25.84
80335;BME280;69653;52.674;13.574;2023-05-14T10:24:47;100967.25;;;23.97;25.21
80335;BME280;69653;52.674;13.574;2023-05-14T10:27:14;100959.25;;;23.95;25.30
80335;BME280;69653;52.674;13.574;2023-05-14T10:29:41;100949.63;;;23.93;25.26
80335;BME280;69653;52.674;13.574;2023-05-14T10:32:13;100952.44;;;23.93;25.83
80335;BME280;69653;52.674;13.574;2023-05-14T10:34:40;100939.09;;;23.79;25.03
80335;BME280;69653;52.674;13.574;2023-05-14T10:37:11;100939.91;;;23.50;24.60
80335;BME280;69653;52.674;13.574;2023-05-14T10:39:48;100944.88;;;23.34;24.93
80335;BME280;69653;52.674;13.574;2023-05-14T10:42:21;100945.94;;;23.52;25.30
80335;BME280;69653;52.674;13.574;2023-05-14T10:44:58;100944.78;;;23.30;24.25
80335;BME280;69653;52.674;13.574;2023-05-14T10:47:26;100938.88;;;23.05;24.28
80335;BME280;69653;52.674;13.574;2023-05-14T10:49:54;100938.97;;;23.12;25.02
80335;BME280;69653;52.674;13.574;2023-05-14T10:52:20;100932.94;;;23.37;23.93
80335;BME280;69653;52.674;13.574;2023-05-14T10:54:56;100929.25;;;23.89;23.94
80335;BME280;69653;52.674;13.574;2023-05-14T10:57:23;100924.38;;;24.59;23.69
80335;BME280;69653;52.674;13.574;2023-05-14T10:59:54;100924.03;;;24.24;23.68
80335;BME280;69653;52.674;13.574;2023-05-14T11:05:04;100924.63;;;24.88;23.65
80335;BME280;69653;52.674;13.574;2023-05-14T11:07:32;100913.56;;;24.58;23.47
80335;BME280;69653;52.674;13.574;2023-05-14T11:10:05;100923.81;;;24.87;23.48
80335;BME280;69653;52.674;13.574;2023-05-14T11:12:33;100909.66;;;24.66;22.82
80335;BME280;69653;52.674;13.574;2023-05-14T11:15:00;100917.28;;;24.73;23.62
80335;BME280;69653;52.674;13.574;2023-05-14T11:17:27;100914.25;;;24.04;24.18
80335;BME280;69653;52.674;13.574;2023-05-14T11:19:54;100903.63;;;23.50;25.44
80335;BME280;69653;52.674;13.574;2023-05-14T11:22:19;100902.47;;;23.25;25.87
80335;BME280;69653;52.674;13.574;2023-05-14T11:24:45;100898.97;;;23.01;25.62
80335;BME280;69653;52.674;13.574;2023-05-14T11:27:10;100901.13;;;22.85;26.00
80335;BME280;69653;52.674;13.574;2023-05-14T11:29:36;100890.59;;;23.01;26.32
80335;BME280;69653;52.674;13.574;2023-05-14T11:32:04;100893.94;;;22.84;26.97
80335;BME280;69653;52.674;13.574;2023-05-14T11:34:30;100893.06;;;22.80;27.40
80335;BME280;69653;52.674;13.574;2023-05-14T11:36:55;100883.75;;;22.69;27.38
80335;BME280;69653;52.674;13.574;2023-05-14T11:39:21;100876.53;;;22.45;28.03
80335;BME280;69653;52.674;13.574;2023-05-14T11:41:46;100882.94;;;22.46;28.00
80335;BME280;69653;52.674;13.574;2023-05-14T11:44:11;100883.38;;;22.48;27.91
80335;BME280;69653;52.674;13.574;2023-05-14T11:46:37;100881.19;;;22.38;28.24
80335;BME280;69653;52.674;13.574;2023-05-14T11:49:03;100874.50;;;22.19;27.67
80335;BME280;69653;52.674;13.574;2023-05-14T11:51:29;100871.09;;;22.30;28.35
80335;BME280;69653;52.674;13.574;2023-05-14T11:53:54;100864.16;;;21.97;28.79
80335;BME280;69653;52.674;13.574;2023-05-14T11:56:20;100875.00;;;22.02;28.47
80335;BME280;69653;52.674;13.574;2023-05-14T11:58:47;100872.25;;;21.64;28.55
80335;BME280;69653;52.674;13.574;2023-05-14T12:01:12;100851.47;;;21.39;29.00
80335;BME280;69653;52.674;13.574;2023-05-14T12:03:38;100843.47;;;21.18;28.53
80335;BME280;69653;52.674;13.574;2023-05-14T12:06:05;100857.03;;;21.04;28.97
80335;BME280;69653;52.674;13.574;2023-05-14T12:08:32;100850.69;;;20.84;29.53
80335;BME280;69653;52.674;13.574;2023-05-14T12:10:59;100849.78;;;20.80;29.80
80335;BME280;69653;52.674;13.574;2023-05-14T12:13:28;100851.84;;;20.83;30.57
80335;BME280;69653;52.674;13.574;2023-05-14T12:15:56;100842.09;;;20.93;30.51
80335;BME280;69653;52.674;13.574;2023-05-14T12:18:26;100849.47;;;20.85;30.71
80335;BME280;69653;52.674;13.574;2023-05-14T12:20:52;100842.94;;;20.77;30.55
80335;BME280;69653;52.674;13.574;2023-05-14T12:23:29;100840.91;;;20.74;31.04
80335;BME280;69653;52.674;13.574;2023-05-14T12:25:54;100847.53;;;20.70;31.32
80335;BME280;69653;52.674;13.574;2023-05-14T12:28:22;100839.44;;;20.61;31.26
80335;BME280;69653;52.674;13.574;2023-05-14T12:30:47;100842.13;;;20.58;31.29
80335;BME280;69653;52.674;13.574;2023-05-14T12:33:13;100829.50;;;20.45;31.54
80335;BME280;69653;52.674;13.574;2023-05-14T12:35:39;100833.16;;;20.33;32.09
80335;BME280;69653;52.674;13.574;2023-05-14T12:38:04;100827.44;;;20.42;31.95
80335;BME280;69653;52.674;13.574;2023-05-14T12:40:30;100829.22;;;20.34;32.21
80335;BME280;69653;52.674;13.574;2023-05-14T12:42:55;100827.19;;;20.47;32.56
80335;BME280;69653;52.674;13.574;2023-05-14T12:45:21;100830.72;;;20.63;32.54